sensor_id;sensor_type;location;lat;lon;timestamp;P1;durP1;ratioP1;P2;durP2;ratioP2
54897;SDS011;40800;52.704;6.398;2023-05-10T00:01:33;63.70;;;59.10;;
54897;SDS011;40800;52.704;6.398;2023-05-10T00:03:59;64.53;;;59.65;;
54897;SDS011;40800;52.704;6.398;2023-05-10T00:06:24;65.53;;;60.72;;
54897;SDS011;40800;52.704;6.398;2023-05-10T00:08:50;65.15;;;60.38;;
54897;SDS011;40800;52.704;6.398;2023-05-10T00:11:15;66.15;;;61.35;;
54897;SDS011;40800;52.704;6.398;2023-05-10T00:13:41;66.65;;;61.78;;
54897;SDS011;40800;52.704;6.398;2023-05-10T00:16:06;69.05;;;63.67;;
54897;SDS011;40800;52.704;6.398;2023-05-10T00:18:32;68.15;;;63.15;;
54897;SDS011;40800;52.704;6.398;2023-05-10T00:20:57;66.07;;;61.33;;
54897;SDS011;40800;52.704;6.398;2023-05-10T00:23:23;66.13;;;61.17;;
54897;SDS011;40800;52.704;6.398;2023-05-10T00:25:49;65.25;;;60.42;;
54897;SDS011;40800;52.704;6.398;2023-05-10T00:28:14;67.65;;;62.58;;
54897;SDS011;40800;52.704;6.398;2023-05-10T00:30:40;65.20;;;60.40;;
54897;SDS011;40800;52.704;6.398;2023-05-10T00:33:05;64.72;;;59.90;;
54897;SDS011;40800;52.704;6.398;2023-05-10T00:35:31;64.57;;;60.00;;
54897;SDS011;40800;52.704;6.398;2023-05-10T00:37:57;68.72;;;63.53;;
54897;SDS011;40800;52.704;6.398;2023-05-10T00:40:22;66.00;;;61.30;;
54897;SDS011;40800;52.704;6.398;2023-05-10T00:42:48;64.90;;;60.25;;
54897;SDS011;40800;52.704;6.398;2023-05-10T00:45:13;63.28;;;58.88;;
54897;SDS011;40800;52.704;6.398;2023-05-10T00:47:39;66.88;;;62.08;;
54897;SDS011;40800;52.704;6.398;2023-05-10T00:50:05;65.90;;;61.22;;
54897;SDS011;40800;52.704;6.398;2023-05-10T00:52:31;63.85;;;59.35;;
54897;SDS011;40800;52.704;6.398;2023-05-10T00:54:57;60.50;;;56.42;;
54897;SDS011;40800;52.704;6.398;2023-05-10T00:57:23;63.47;;;59.15;;
54897;SDS011;40800;52.704;6.398;2023-05-10T00:59:49;63.30;;;58.70;;
54897;SDS011;40800;52.704;6.398;2023-05-10T01:02:15;63.83;;;59.37;;
54897;SDS011;40800;52.704;6.398;2023-05-10T01:04:41;63.03;;;58.65;;
54897;SDS011;40800;52.704;6.398;2023-05-10T01:09:34;60.35;;;56.25;;
54897;SDS011;40800;52.704;6.398;2023-05-10T01:11:59;63.55;;;59.30;;
54897;SDS011;40800;52.704;6.398;2023-05-10T01:14:26;63.33;;;59.13;;
54897;SDS011;40800;52.704;6.398;2023-05-10T01:16:53;63.13;;;58.63;;
54897;SDS011;40800;52.704;6.398;2023-05-10T01:19:22;61.70;;;57.53;;
54897;SDS011;40800;52.704;6.398;2023-05-10T01:21:53;61.33;;;57.13;;
54897;SDS011;40800;52.704;6.398;2023-05-10T01:24:49;60.47;;;56.38;;
54897;SDS011;40800;52.704;6.398;2023-05-10T01:33:39;58.30;;;54.38;;
54897;SDS011;40800;52.704;6.398;2023-05-10T01:39:39;61.17;;;57.17;;
54897;SDS011;40800;52.704;6.398;2023-05-10T01:42:16;60.85;;;57.00;;
54897;SDS011;40800;52.704;6.398;2023-05-10T01:44:52;60.75;;;56.78;;
54897;SDS011;40800;52.704;6.398;2023-05-10T01:49:57;58.65;;;54.95;;
54897;SDS011;40800;52.704;6.398;2023-05-10T01:52:28;58.50;;;54.83;;
54897;SDS011;40800;52.704;6.398;2023-05-10T01:55:16;59.38;;;55.58;;
54897;SDS011;40800;52.704;6.398;2023-05-10T01:57:43;58.08;;;54.28;;
54897;SDS011;40800;52.704;6.398;2023-05-10T02:00:11;56.67;;;53.13;;
54897;SDS011;40800;52.704;6.398;2023-05-10T02:02:39;54.03;;;50.53;;
54897;SDS011;40800;52.704;6.398;2023-05-10T02:05:07;55.50;;;51.97;;
54897;SDS011;40800;52.704;6.398;2023-05-10T02:07:34;55.00;;;51.60;;
54897;SDS011;40800;52.704;6.398;2023-05-10T02:10:02;54.25;;;50.90;;
54897;SDS011;40800;52.704;6.398;2023-05-10T02:12:35;51.42;;;48.08;;
54897;SDS011;40800;52.704;6.398;2023-05-10T02:15:02;50.90;;;47.55;;
54897;SDS011;40800;52.704;6.398;2023-05-10T02:17:31;52.17;;;48.97;;
54897;SDS011;40800;52.704;6.398;2023-05-10T02:19:57;53.75;;;50.35;;
54897;SDS011;40800;52.704;6.398;2023-05-10T02:22:25;52.17;;;48.90;;
54897;SDS011;40800;52.704;6.398;2023-05-10T02:24:52;53.42;;;50.13;;
54897;SDS011;40800;52.704;6.398;2023-05-10T02:27:19;53.88;;;50.60;;
54897;SDS011;40800;52.704;6.398;2023-05-10T02:29:46;52.20;;;48.95;;
54897;SDS011;40800;52.704;6.398;2023-05-10T02:32:13;49.90;;;46.80;;
54897;SDS011;40800;52.704;6.398;2023-05-10T02:34:39;51.67;;;48.40;;
54897;SDS011;40800;52.704;6.398;2023-05-10T02:37:06;53.58;;;50.20;;
54897;SDS011;40800;52.704;6.398;2023-05-10T02:39:32;54.53;;;51.08;;
54897;SDS011;40800;52.704;6.398;2023-05-10T02:41:58;53.90;;;50.47;;
54897;SDS011;40800;52.704;6.398;2023-05-10T02:44:25;53.58;;;50.08;;
54897;SDS011;40800;52.704;6.398;2023-05-10T02:46:55;55.00;;;51.45;;
54897;SDS011;40800;52.704;6.398;2023-05-10T02:49:22;52.17;;;48.58;;
54897;SDS011;40800;52.704;6.398;2023-05-10T02:51:49;51.53;;;48.20;;
54897;SDS011;40800;52.704;6.398;2023-05-10T02:54:18;53.33;;;49.83;;
54897;SDS011;40800;52.704;6.398;2023-05-10T02:56:50;55.42;;;51.92;;
54897;SDS011;40800;52.704;6.398;2023-05-10T02:59:21;55.10;;;51.70;;
54897;SDS011;40800;52.704;6.398;2023-05-10T03:01:47;54.80;;;51.30;;
54897;SDS011;40800;52.704;6.398;2023-05-10T03:04:12;55.65;;;52.13;;
54897;SDS011;40800;52.704;6.398;2023-05-10T03:06:38;53.55;;;50.03;;
54897;SDS011;40800;52.704;6.398;2023-05-10T03:09:04;53.87;;;50.47;;
54897;SDS011;40800;52.704;6.398;2023-05-10T03:14:10;56.08;;;52.28;;
54897;SDS011;40800;52.704;6.398;2023-05-10T03:17:15;55.58;;;51.97;;
54897;SDS011;40800;52.704;6.398;2023-05-10T03:19:55;55.50;;;51.88;;
54897;SDS011;40800;52.704;6.398;2023-05-10T03:22:32;53.08;;;49.42;;
54897;SDS011;40800;52.704;6.398;2023-05-10T03:25:03;53.67;;;50.08;;
54897;SDS011;40800;52.704;6.398;2023-05-10T03:27:31;54.58;;;51.15;;
54897;SDS011;40800;52.704;6.398;2023-05-10T03:29:58;57.08;;;53.20;;
54897;SDS011;40800;52.704;6.398;2023-05-10T03:32:25;58.97;;;55.00;;
54897;SDS011;40800;52.704;6.398;2023-05-10T03:37:17;55.83;;;52.15;;
54897;SDS011;40800;52.704;6.398;2023-05-10T03:39:43;57.63;;;53.50;;
54897;SDS011;40800;52.704;6.398;2023-05-10T03:42:08;56.50;;;52.60;;
54897;SDS011;40800;52.704;6.398;2023-05-10T03:44:36;57.65;;;53.65;;
54897;SDS011;40800;52.704;6.398;2023-05-10T03:47:03;55.22;;;51.50;;
54897;SDS011;40800;52.704;6.398;2023-05-10T03:49:29;55.00;;;51.30;;
54897;SDS011;40800;52.704;6.398;2023-05-10T03:51:54;55.25;;;51.45;;
54897;SDS011;40800;52.704;6.398;2023-05-10T03:54:20;53.95;;;50.45;;
54897;SDS011;40800;52.704;6.398;2023-05-10T03:56:45;54.95;;;51.20;;
54897;SDS011;40800;52.704;6.398;2023-05-10T03:59:12;55.88;;;52.10;;
54897;SDS011;40800;52.704;6.398;2023-05-10T04:01:38;56.20;;;52.53;;
54897;SDS011;40800;52.704;6.398;2023-05-10T04:04:04;54.58;;;50.95;;
54897;SDS011;40800;52.704;6.398;2023-05-10T04:06:30;52.35;;;49.00;;
54897;SDS011;40800;52.704;6.398;2023-05-10T04:08:55;56.17;;;52.50;;
54897;SDS011;40800;52.704;6.398;2023-05-10T04:11:24;66.53;;;62.42;;
54897;SDS011;40800;52.704;6.398;2023-05-10T04:13:49;66.07;;;62.08;;
54897;SDS011;40800;52.704;6.398;2023-05-10T04:16:15;58.35;;;54.70;;
54897;SDS011;40800;52.704;6.398;2023-05-10T04:18:40;59.00;;;55.13;;
54897;SDS011;40800;52.704;6.398;2023-05-10T04:21:12;62.50;;;58.55;;
54897;SDS011;40800;52.704;6.398;2023-05-10T04:23:38;60.17;;;56.28;;
54897;SDS011;40800;52.704;6.398;2023-05-10T04:26:04;60.40;;;56.63;;
54897;SDS011;40800;52.704;6.398;2023-05-10T04:28:30;61.38;;;57.47;;
54897;SDS011;40800;52.704;6.398;2023-05-10T04:31:05;61.30;;;57.40;;
54897;SDS011;40800;52.704;6.398;2023-05-10T04:33:32;61.00;;;57.20;;
54897;SDS011;40800;52.704;6.398;2023-05-10T04:35:59;60.70;;;56.42;;
54897;SDS011;40800;52.704;6.398;2023-05-10T04:38:25;63.22;;;59.00;;
54897;SDS011;40800;52.704;6.398;2023-05-10T04:40:51;63.97;;;59.97;;
54897;SDS011;40800;52.704;6.398;2023-05-10T04:43:17;59.80;;;56.00;;
54897;SDS011;40800;52.704;6.398;2023-05-10T04:45:43;60.42;;;56.53;;
54897;SDS011;40800;52.704;6.398;2023-05-10T04:48:09;60.05;;;56.20;;
54897;SDS011;40800;52.704;6.398;2023-05-10T04:50:34;58.45;;;54.80;;
54897;SDS011;40800;52.704;6.398;2023-05-10T04:53:00;57.35;;;53.45;;
54897;SDS011;40800;52.704;6.398;2023-05-10T04:55:26;58.17;;;54.38;;
54897;SDS011;40800;52.704;6.398;2023-05-10T04:57:52;57.05;;;53.35;;
54897;SDS011;40800;52.704;6.398;2023-05-10T05:00:18;55.70;;;52.03;;
54897;SDS011;40800;52.704;6.398;2023-05-10T05:02:44;58.10;;;54.50;;
54897;SDS011;40800;52.704;6.398;2023-05-10T05:05:10;58.28;;;54.45;;
54897;SDS011;40800;52.704;6.398;2023-05-10T05:07:36;59.13;;;55.43;;
54897;SDS011;40800;52.704;6.398;2023-05-10T05:10:03;57.63;;;53.80;;
54897;SDS011;40800;52.704;6.398;2023-05-10T05:12:33;56.90;;;53.15;;
54897;SDS011;40800;52.704;6.398;2023-05-10T05:14:59;56.22;;;52.45;;
54897;SDS011;40800;52.704;6.398;2023-05-10T05:17:24;57.58;;;53.85;;
54897;SDS011;40800;52.704;6.398;2023-05-10T05:19:50;57.75;;;54.03;;
54897;SDS011;40800;52.704;6.398;2023-05-10T05:22:16;56.95;;;53.33;;
54897;SDS011;40800;52.704;6.398;2023-05-10T05:24:41;56.67;;;52.88;;
54897;SDS011;40800;52.704;6.398;2023-05-10T05:27:07;57.05;;;53.33;;
54897;SDS011;40800;52.704;6.398;2023-05-10T05:29:32;55.28;;;51.72;;
54897;SDS011;40800;52.704;6.398;2023-05-10T05:31:58;56.97;;;53.28;;
54897;SDS011;40800;52.704;6.398;2023-05-10T05:34:24;56.35;;;52.38;;
54897;SDS011;40800;52.704;6.398;2023-05-10T05:36:50;56.78;;;53.00;;
54897;SDS011;40800;52.704;6.398;2023-05-10T05:39:15;55.10;;;51.42;;
54897;SDS011;40800;52.704;6.398;2023-05-10T05:41:41;55.92;;;52.08;;
54897;SDS011;40800;52.704;6.398;2023-05-10T05:44:07;55.25;;;51.47;;
54897;SDS011;40800;52.704;6.398;2023-05-10T05:46:33;53.70;;;50.10;;
54897;SDS011;40800;52.704;6.398;2023-05-10T05:48:58;54.70;;;50.60;;
54897;SDS011;40800;52.704;6.398;2023-05-10T05:51:24;55.30;;;51.13;;
54897;SDS011;40800;52.704;6.398;2023-05-10T05:53:50;56.58;;;52.58;;
54897;SDS011;40800;52.704;6.398;2023-05-10T05:56:15;56.30;;;52.40;;
54897;SDS011;40800;52.704;6.398;2023-05-10T05:58:42;56.90;;;53.00;;
54897;SDS011;40800;52.704;6.398;2023-05-10T06:01:08;55.65;;;51.65;;
54897;SDS011;40800;52.704;6.398;2023-05-10T06:03:34;56.55;;;52.72;;
54897;SDS011;40800;52.704;6.398;2023-05-10T06:05:59;54.95;;;51.28;;
54897;SDS011;40800;52.704;6.398;2023-05-10T06:08:25;56.83;;;52.78;;
54897;SDS011;40800;52.704;6.398;2023-05-10T06:10:50;57.97;;;54.10;;
54897;SDS011;40800;52.704;6.398;2023-05-10T06:13:16;55.92;;;51.72;;
54897;SDS011;40800;52.704;6.398;2023-05-10T06:15:41;55.55;;;51.63;;
54897;SDS011;40800;52.704;6.398;2023-05-10T06:18:07;57.50;;;53.50;;
54897;SDS011;40800;52.704;6.398;2023-05-10T06:20:33;54.80;;;51.05;;
54897;SDS011;40800;52.704;6.398;2023-05-10T06:22:58;57.17;;;53.28;;
54897;SDS011;40800;52.704;6.398;2023-05-10T06:25:24;57.35;;;53.05;;
54897;SDS011;40800;52.704;6.398;2023-05-10T06:27:50;55.75;;;51.58;;
54897;SDS011;40800;52.704;6.398;2023-05-10T06:30:15;56.63;;;52.60;;
54897;SDS011;40800;52.704;6.398;2023-05-10T06:32:41;55.83;;;51.78;;
54897;SDS011;40800;52.704;6.398;2023-05-10T06:35:08;57.33;;;53.17;;
54897;SDS011;40800;52.704;6.398;2023-05-10T06:37:34;56.22;;;52.28;;
54897;SDS011;40800;52.704;6.398;2023-05-10T06:40:00;56.03;;;51.92;;
54897;SDS011;40800;52.704;6.398;2023-05-10T06:42:25;57.20;;;53.00;;
54897;SDS011;40800;52.704;6.398;2023-05-10T06:44:52;54.90;;;51.20;;
54897;SDS011;40800;52.704;6.398;2023-05-10T06:47:18;55.90;;;52.20;;
54897;SDS011;40800;52.704;6.398;2023-05-10T06:49:43;54.67;;;50.83;;
54897;SDS011;40800;52.704;6.398;2023-05-10T06:52:09;55.13;;;51.22;;
54897;SDS011;40800;52.704;6.398;2023-05-10T06:54:34;55.80;;;51.85;;
54897;SDS011;40800;52.704;6.398;2023-05-10T06:57:00;57.00;;;53.03;;
54897;SDS011;40800;52.704;6.398;2023-05-10T06:59:27;57.67;;;53.67;;
54897;SDS011;40800;52.704;6.398;2023-05-10T07:01:53;57.42;;;53.45;;
54897;SDS011;40800;52.704;6.398;2023-05-10T07:04:18;57.40;;;53.40;;
54897;SDS011;40800;52.704;6.398;2023-05-10T07:06:44;55.30;;;51.45;;
54897;SDS011;40800;52.704;6.398;2023-05-10T07:09:11;56.63;;;52.75;;
54897;SDS011;40800;52.704;6.398;2023-05-10T07:11:36;56.78;;;52.88;;
54897;SDS011;40800;52.704;6.398;2023-05-10T07:14:02;56.50;;;52.70;;
54897;SDS011;40800;52.704;6.398;2023-05-10T07:16:28;55.47;;;51.83;;
54897;SDS011;40800;52.704;6.398;2023-05-10T07:18:53;53.95;;;50.35;;
54897;SDS011;40800;52.704;6.398;2023-05-10T07:21:19;55.70;;;52.10;;
54897;SDS011;40800;52.704;6.398;2023-05-10T07:23:44;55.28;;;51.58;;
54897;SDS011;40800;52.704;6.398;2023-05-10T07:26:10;55.20;;;51.50;;
54897;SDS011;40800;52.704;6.398;2023-05-10T07:28:36;55.85;;;52.13;;
54897;SDS011;40800;52.704;6.398;2023-05-10T07:31:02;56.13;;;52.58;;
54897;SDS011;40800;52.704;6.398;2023-05-10T07:33:28;55.60;;;52.05;;
54897;SDS011;40800;52.704;6.398;2023-05-10T07:35:53;55.25;;;51.45;;
54897;SDS011;40800;52.704;6.398;2023-05-10T07:38:19;55.20;;;51.42;;
54897;SDS011;40800;52.704;6.398;2023-05-10T07:40:44;55.83;;;52.15;;
54897;SDS011;40800;52.704;6.398;2023-05-10T07:43:10;57.50;;;53.50;;
54897;SDS011;40800;52.704;6.398;2023-05-10T07:45:35;57.70;;;53.90;;
54897;SDS011;40800;52.704;6.398;2023-05-10T07:48:01;54.70;;;50.97;;
54897;SDS011;40800;52.704;6.398;2023-05-10T07:50:27;55.75;;;52.30;;
54897;SDS011;40800;52.704;6.398;2023-05-10T07:52:52;55.08;;;51.78;;
54897;SDS011;40800;52.704;6.398;2023-05-10T07:55:18;54.95;;;51.45;;
54897;SDS011;40800;52.704;6.398;2023-05-10T07:57:44;53.17;;;50.08;;
54897;SDS011;40800;52.704;6.398;2023-05-10T08:00:12;51.67;;;48.67;;
54897;SDS011;40800;52.704;6.398;2023-05-10T08:02:38;49.50;;;46.65;;
54897;SDS011;40800;52.704;6.398;2023-05-10T08:05:04;49.38;;;46.47;;
54897;SDS011;40800;52.704;6.398;2023-05-10T08:07:30;51.73;;;48.73;;
54897;SDS011;40800;52.704;6.398;2023-05-10T08:09:56;47.88;;;45.17;;
54897;SDS011;40800;52.704;6.398;2023-05-10T08:12:21;47.80;;;45.10;;
54897;SDS011;40800;52.704;6.398;2023-05-10T08:14:47;49.30;;;46.50;;
54897;SDS011;40800;52.704;6.398;2023-05-10T08:17:12;49.67;;;46.97;;
54897;SDS011;40800;52.704;6.398;2023-05-10T08:19:38;46.70;;;44.22;;
54897;SDS011;40800;52.704;6.398;2023-05-10T08:22:04;48.58;;;46.03;;
54897;SDS011;40800;52.704;6.398;2023-05-10T08:24:29;47.78;;;45.22;;
54897;SDS011;40800;52.704;6.398;2023-05-10T08:26:55;47.78;;;45.38;;
54897;SDS011;40800;52.704;6.398;2023-05-10T08:29:20;43.63;;;41.53;;
54897;SDS011;40800;52.704;6.398;2023-05-10T08:31:46;43.55;;;41.28;;
54897;SDS011;40800;52.704;6.398;2023-05-10T08:34:11;42.22;;;40.13;;
54897;SDS011;40800;52.704;6.398;2023-05-10T08:36:37;41.22;;;39.22;;
54897;SDS011;40800;52.704;6.398;2023-05-10T08:39:02;41.30;;;39.30;;
54897;SDS011;40800;52.704;6.398;2023-05-10T08:41:28;41.05;;;39.00;;
54897;SDS011;40800;52.704;6.398;2023-05-10T08:43:56;39.55;;;37.58;;
54897;SDS011;40800;52.704;6.398;2023-05-10T08:46:22;40.78;;;38.67;;
54897;SDS011;40800;52.704;6.398;2023-05-10T08:48:49;41.00;;;38.67;;
54897;SDS011;40800;52.704;6.398;2023-05-10T08:51:19;41.03;;;38.92;;
54897;SDS011;40800;52.704;6.398;2023-05-10T08:53:48;39.80;;;37.47;;
54897;SDS011;40800;52.704;6.398;2023-05-10T08:56:15;41.08;;;38.97;;
54897;SDS011;40800;52.704;6.398;2023-05-10T08:58:41;40.95;;;38.75;;
54897;SDS011;40800;52.704;6.398;2023-05-10T09:01:07;40.80;;;38.53;;
54897;SDS011;40800;52.704;6.398;2023-05-10T09:03:33;40.53;;;38.53;;
54897;SDS011;40800;52.704;6.398;2023-05-10T09:06:00;40.28;;;38.17;;
54897;SDS011;40800;52.704;6.398;2023-05-10T09:08:26;39.35;;;37.35;;
54897;SDS011;40800;52.704;6.398;2023-05-10T09:10:52;41.13;;;38.92;;
54897;SDS011;40800;52.704;6.398;2023-05-10T09:13:18;39.95;;;37.95;;
54897;SDS011;40800;52.704;6.398;2023-05-10T09:15:45;39.35;;;37.30;;
54897;SDS011;40800;52.704;6.398;2023-05-10T09:18:12;39.30;;;37.17;;
54897;SDS011;40800;52.704;6.398;2023-05-10T09:20:37;38.58;;;36.58;;
54897;SDS011;40800;52.704;6.398;2023-05-10T09:23:03;38.70;;;36.60;;
54897;SDS011;40800;52.704;6.398;2023-05-10T09:25:29;38.92;;;36.90;;
54897;SDS011;40800;52.704;6.398;2023-05-10T09:27:54;39.60;;;37.42;;
54897;SDS011;40800;52.704;6.398;2023-05-10T09:30:24;39.88;;;37.78;;
54897;SDS011;40800;52.704;6.398;2023-05-10T09:32:54;38.75;;;36.70;;
54897;SDS011;40800;52.704;6.398;2023-05-10T09:35:21;39.72;;;37.47;;
54897;SDS011;40800;52.704;6.398;2023-05-10T09:37:50;40.65;;;38.35;;
54897;SDS011;40800;52.704;6.398;2023-05-10T09:40:20;41.35;;;38.95;;
54897;SDS011;40800;52.704;6.398;2023-05-10T09:43:29;41.00;;;38.70;;
54897;SDS011;40800;52.704;6.398;2023-05-10T09:45:36;43.15;;;40.75;;
54897;SDS011;40800;52.704;6.398;2023-05-10T09:48:02;42.63;;;40.25;;
54897;SDS011;40800;52.704;6.398;2023-05-10T09:50:31;43.92;;;41.42;;
54897;SDS011;40800;52.704;6.398;2023-05-10T09:52:57;43.70;;;41.22;;
54897;SDS011;40800;52.704;6.398;2023-05-10T09:55:25;45.08;;;42.47;;
54897;SDS011;40800;52.704;6.398;2023-05-10T09:58:02;44.40;;;41.78;;
54897;SDS011;40800;52.704;6.398;2023-05-10T10:00:33;42.75;;;40.25;;
54897;SDS011;40800;52.704;6.398;2023-05-10T10:03:00;44.60;;;41.90;;
54897;SDS011;40800;52.704;6.398;2023-05-10T10:05:33;45.90;;;43.08;;
54897;SDS011;40800;52.704;6.398;2023-05-10T10:08:00;46.55;;;43.65;;
54897;SDS011;40800;52.704;6.398;2023-05-10T10:10:28;46.28;;;43.47;;
54897;SDS011;40800;52.704;6.398;2023-05-10T10:12:55;45.97;;;43.25;;
54897;SDS011;40800;52.704;6.398;2023-05-10T10:15:21;46.20;;;43.58;;
54897;SDS011;40800;52.704;6.398;2023-05-10T10:17:48;45.53;;;42.83;;
54897;SDS011;40800;52.704;6.398;2023-05-10T10:20:14;47.63;;;44.80;;
54897;SDS011;40800;52.704;6.398;2023-05-10T10:22:41;45.00;;;42.25;;
54897;SDS011;40800;52.704;6.398;2023-05-10T10:25:08;44.83;;;42.22;;
54897;SDS011;40800;52.704;6.398;2023-05-10T10:30:21;45.42;;;42.72;;
54897;SDS011;40800;52.704;6.398;2023-05-10T10:35:38;45.10;;;42.45;;
54897;SDS011;40800;52.704;6.398;2023-05-10T10:38:07;43.47;;;40.88;;
54897;SDS011;40800;52.704;6.398;2023-05-10T10:40:33;43.55;;;40.95;;
54897;SDS011;40800;52.704;6.398;2023-05-10T10:48:40;41.10;;;38.78;;
54897;SDS011;40800;52.704;6.398;2023-05-10T10:53:32;37.58;;;35.38;;
54897;SDS011;40800;52.704;6.398;2023-05-10T10:56:10;39.63;;;37.33;;
54897;SDS011;40800;52.704;6.398;2023-05-10T10:58:38;42.08;;;39.58;;
54897;SDS011;40800;52.704;6.398;2023-05-10T11:03:41;39.30;;;36.90;;
54897;SDS011;40800;52.704;6.398;2023-05-10T11:06:28;39.42;;;37.08;;
54897;SDS011;40800;52.704;6.398;2023-05-10T11:08:56;42.25;;;39.65;;
54897;SDS011;40800;52.704;6.398;2023-05-10T11:11:22;42.58;;;39.70;;
54897;SDS011;40800;52.704;6.398;2023-05-10T11:13:48;42.03;;;39.33;;
54897;SDS011;40800;52.704;6.398;2023-05-10T11:16:20;42.08;;;39.47;;
54897;SDS011;40800;52.704;6.398;2023-05-10T11:18:52;43.38;;;40.58;;
54897;SDS011;40800;52.704;6.398;2023-05-10T11:21:24;44.13;;;41.33;;
54897;SDS011;40800;52.704;6.398;2023-05-10T11:23:50;45.78;;;42.78;;
54897;SDS011;40800;52.704;6.398;2023-05-10T11:26:20;44.05;;;41.25;;
54897;SDS011;40800;52.704;6.398;2023-05-10T11:28:48;41.42;;;39.03;;
54897;SDS011;40800;52.704;6.398;2023-05-10T11:31:14;44.30;;;41.60;;
54897;SDS011;40800;52.704;6.398;2023-05-10T11:33:44;43.40;;;40.80;;
54897;SDS011;40800;52.704;6.398;2023-05-10T11:36:16;44.17;;;41.30;;
54897;SDS011;40800;52.704;6.398;2023-05-10T11:38:44;43.05;;;40.38;;
54897;SDS011;40800;52.704;6.398;2023-05-10T11:41:11;45.22;;;42.33;;
54897;SDS011;40800;52.704;6.398;2023-05-10T11:43:38;47.33;;;44.00;;
54897;SDS011;40800;52.704;6.398;2023-05-10T11:46:09;46.72;;;43.83;;
54897;SDS011;40800;52.704;6.398;2023-05-10T11:48:36;47.88;;;44.88;;
54897;SDS011;40800;52.704;6.398;2023-05-10T11:51:03;48.53;;;45.38;;
54897;SDS011;40800;52.704;6.398;2023-05-10T11:53:30;47.53;;;44.53;;
54897;SDS011;40800;52.704;6.398;2023-05-10T11:56:06;48.83;;;45.83;;
54897;SDS011;40800;52.704;6.398;2023-05-10T11:58:36;49.28;;;46.17;;
54897;SDS011;40800;52.704;6.398;2023-05-10T12:01:03;49.88;;;46.67;;
54897;SDS011;40800;52.704;6.398;2023-05-10T12:05:56;50.88;;;47.72;;
54897;SDS011;40800;52.704;6.398;2023-05-10T12:08:23;51.22;;;47.83;;
54897;SDS011;40800;52.704;6.398;2023-05-10T12:10:51;51.42;;;47.97;;
54897;SDS011;40800;52.704;6.398;2023-05-10T12:13:18;51.28;;;47.92;;
54897;SDS011;40800;52.704;6.398;2023-05-10T12:18:11;49.95;;;46.85;;
54897;SDS011;40800;52.704;6.398;2023-05-10T12:20:38;51.25;;;47.92;;
54897;SDS011;40800;52.704;6.398;2023-05-10T12:23:04;49.57;;;46.47;;
54897;SDS011;40800;52.704;6.398;2023-05-10T12:25:31;49.28;;;46.17;;
54897;SDS011;40800;52.704;6.398;2023-05-10T12:27:58;49.42;;;46.20;;
54897;SDS011;40800;52.704;6.398;2023-05-10T12:30:29;49.08;;;46.08;;
54897;SDS011;40800;52.704;6.398;2023-05-10T12:33:00;49.95;;;46.75;;
54897;SDS011;40800;52.704;6.398;2023-05-10T12:35:29;48.20;;;45.13;;
54897;SDS011;40800;52.704;6.398;2023-05-10T12:37:55;47.92;;;44.63;;
54897;SDS011;40800;52.704;6.398;2023-05-10T12:40:21;47.08;;;44.20;;
54897;SDS011;40800;52.704;6.398;2023-05-10T12:42:46;46.92;;;43.78;;
54897;SDS011;40800;52.704;6.398;2023-05-10T12:45:13;46.53;;;43.40;;
54897;SDS011;40800;52.704;6.398;2023-05-10T12:47:41;48.10;;;44.97;;
54897;SDS011;40800;52.704;6.398;2023-05-10T12:50:07;49.20;;;46.05;;
54897;SDS011;40800;52.704;6.398;2023-05-10T12:52:33;45.83;;;42.92;;
54897;SDS011;40800;52.704;6.398;2023-05-10T12:54:59;43.10;;;40.30;;
54897;SDS011;40800;52.704;6.398;2023-05-10T12:57:25;40.88;;;38.30;;
54897;SDS011;40800;52.704;6.398;2023-05-10T12:59:52;41.20;;;38.60;;
54897;SDS011;40800;52.704;6.398;2023-05-10T13:02:17;41.60;;;38.92;;
54897;SDS011;40800;52.704;6.398;2023-05-10T13:04:43;40.78;;;38.13;;
54897;SDS011;40800;52.704;6.398;2023-05-10T13:07:09;38.20;;;35.83;;
54897;SDS011;40800;52.704;6.398;2023-05-10T13:09:35;36.30;;;34.00;;
54897;SDS011;40800;52.704;6.398;2023-05-10T13:12:01;35.75;;;33.65;;
54897;SDS011;40800;52.704;6.398;2023-05-10T13:14:27;35.67;;;33.38;;
54897;SDS011;40800;52.704;6.398;2023-05-10T13:16:53;36.08;;;33.75;;
54897;SDS011;40800;52.704;6.398;2023-05-10T13:19:19;38.08;;;35.67;;
54897;SDS011;40800;52.704;6.398;2023-05-10T13:21:44;36.97;;;34.78;;
54897;SDS011;40800;52.704;6.398;2023-05-10T13:24:11;36.17;;;33.88;;
54897;SDS011;40800;52.704;6.398;2023-05-10T13:26:38;38.80;;;36.40;;
54897;SDS011;40800;52.704;6.398;2023-05-10T13:29:05;39.60;;;37.15;;
54897;SDS011;40800;52.704;6.398;2023-05-10T13:31:30;39.95;;;37.47;;
54897;SDS011;40800;52.704;6.398;2023-05-10T13:33:56;38.90;;;36.65;;
54897;SDS011;40800;52.704;6.398;2023-05-10T13:36:21;38.08;;;35.75;;
54897;SDS011;40800;52.704;6.398;2023-05-10T13:38:47;37.85;;;35.55;;
54897;SDS011;40800;52.704;6.398;2023-05-10T13:41:13;37.03;;;34.70;;
54897;SDS011;40800;52.704;6.398;2023-05-10T13:43:39;37.75;;;35.42;;
54897;SDS011;40800;52.704;6.398;2023-05-10T13:46:04;37.80;;;35.40;;
54897;SDS011;40800;52.704;6.398;2023-05-10T13:48:30;37.67;;;35.30;;
54897;SDS011;40800;52.704;6.398;2023-05-10T13:50:55;38.38;;;35.97;;
54897;SDS011;40800;52.704;6.398;2023-05-10T13:53:21;38.72;;;36.17;;
54897;SDS011;40800;52.704;6.398;2023-05-10T13:55:47;36.63;;;34.25;;
54897;SDS011;40800;52.704;6.398;2023-05-10T13:58:12;37.55;;;35.08;;
54897;SDS011;40800;52.704;6.398;2023-05-10T14:00:38;36.63;;;34.33;;
54897;SDS011;40800;52.704;6.398;2023-05-10T14:03:03;36.47;;;34.10;;
54897;SDS011;40800;52.704;6.398;2023-05-10T14:05:30;37.13;;;34.72;;
54897;SDS011;40800;52.704;6.398;2023-05-10T14:07:55;39.33;;;36.53;;
54897;SDS011;40800;52.704;6.398;2023-05-10T14:10:22;38.97;;;36.47;;
54897;SDS011;40800;52.704;6.398;2023-05-10T14:12:47;39.72;;;37.15;;
54897;SDS011;40800;52.704;6.398;2023-05-10T14:15:13;40.80;;;37.85;;
54897;SDS011;40800;52.704;6.398;2023-05-10T14:17:38;40.97;;;38.25;;
54897;SDS011;40800;52.704;6.398;2023-05-10T14:20:04;42.55;;;39.55;;
54897;SDS011;40800;52.704;6.398;2023-05-10T14:22:30;43.33;;;40.53;;
54897;SDS011;40800;52.704;6.398;2023-05-10T14:24:56;41.30;;;38.58;;
54897;SDS011;40800;52.704;6.398;2023-05-10T14:27:22;42.90;;;39.78;;
54897;SDS011;40800;52.704;6.398;2023-05-10T14:29:47;41.47;;;38.78;;
54897;SDS011;40800;52.704;6.398;2023-05-10T14:32:13;42.05;;;39.35;;
54897;SDS011;40800;52.704;6.398;2023-05-10T14:34:38;43.53;;;40.63;;
54897;SDS011;40800;52.704;6.398;2023-05-10T14:37:04;42.65;;;39.78;;
54897;SDS011;40800;52.704;6.398;2023-05-10T14:39:30;42.40;;;39.55;;
54897;SDS011;40800;52.704;6.398;2023-05-10T14:41:55;42.60;;;39.80;;
54897;SDS011;40800;52.704;6.398;2023-05-10T14:44:21;41.72;;;39.08;;
54897;SDS011;40800;52.704;6.398;2023-05-10T14:46:47;41.50;;;38.67;;
54897;SDS011;40800;52.704;6.398;2023-05-10T14:49:13;40.40;;;37.72;;
54897;SDS011;40800;52.704;6.398;2023-05-10T14:51:39;40.17;;;37.53;;
54897;SDS011;40800;52.704;6.398;2023-05-10T14:54:05;39.13;;;36.72;;
54897;SDS011;40800;52.704;6.398;2023-05-10T14:56:31;40.58;;;37.78;;
54897;SDS011;40800;52.704;6.398;2023-05-10T14:58:56;41.05;;;38.30;;
54897;SDS011;40800;52.704;6.398;2023-05-10T15:01:22;41.33;;;38.42;;